createdAt,value
2018-09-19T00:01:29.807Z,538.50
2018-09-19T00:03:56.944Z,528.57
2018-09-19T00:06:24.069Z,528.40
2018-09-19T00:08:51.181Z,532.63
2018-09-19T00:11:18.298Z,524.97
2018-09-19T00:13:45.449Z,538.50
2018-09-19T00:16:12.563Z,528.00
2018-09-19T00:18:39.669Z,544.63
2018-09-19T00:21:06.796Z,529.63
2018-09-19T00:23:33.905Z,529.53
2018-09-19T00:26:01.108Z,526.13
2018-09-19T00:28:28.228Z,526.53
2018-09-19T00:30:55.349Z,538.37
2018-09-19T00:33:22.449Z,528.53
2018-09-19T00:35:49.729Z,541.10
2018-09-19T00:38:16.848Z,524.90
2018-09-19T00:40:44.009Z,522.80
2018-09-19T00:43:11.141Z,534.93
2018-09-19T00:45:38.321Z,528.47
2018-09-19T00:48:05.664Z,529.10
2018-09-19T00:50:32.817Z,528.80
2018-09-19T00:53:00.088Z,538.40
2018-09-19T00:55:27.265Z,533.30
2018-09-19T00:57:54.397Z,528.90
2018-09-19T01:00:21.533Z,526.93
2018-09-19T01:02:48.661Z,528.67
2018-09-19T01:05:15.981Z,526.77
2018-09-19T01:07:43.119Z,539.13
2018-09-19T01:10:10.265Z,529.40
2018-09-19T01:12:37.396Z,536.00
2018-09-19T01:15:04.598Z,532.80
2018-09-19T01:17:31.749Z,532.40
2018-09-19T01:19:58.928Z,531.03
2018-09-19T01:22:26.074Z,526.63
2018-09-19T01:24:53.205Z,526.63
2018-09-19T01:27:20.352Z,528.07
2018-09-19T01:29:47.496Z,536.53
2018-09-19T01:32:14.663Z,526.17
2018-09-19T01:34:41.813Z,525.57
2018-09-19T01:37:08.965Z,527.97
2018-09-19T01:39:36.110Z,531.77
2018-09-19T01:42:03.261Z,535.97
2018-09-19T01:44:30.408Z,528.10
2018-09-19T01:46:57.538Z,526.20
2018-09-19T01:49:24.667Z,533.90
2018-09-19T01:52:09.581Z,533.30
2018-09-19T01:54:36.742Z,529.63
2018-09-19T01:57:03.909Z,524.23
2018-09-19T01:59:31.055Z,521.43
2018-09-19T02:01:58.219Z,523.53
2018-09-19T02:04:25.377Z,520.77
2018-09-19T02:06:52.529Z,534.63
2018-09-19T02:09:19.687Z,527.73
2018-09-19T02:11:46.878Z,523.00
2018-09-19T02:14:14.038Z,523.77
2018-09-19T02:16:41.194Z,523.60
2018-09-19T02:19:08.669Z,520.30
2018-09-19T02:21:35.966Z,524.93
2018-09-19T02:24:03.139Z,539.43
2018-09-19T02:26:30.510Z,523.33
2018-09-19T02:28:57.672Z,521.83
2018-09-19T02:31:24.870Z,522.87
2018-09-19T02:33:52.316Z,531.87
2018-09-19T02:36:23.355Z,524.83
2018-09-19T02:38:51.818Z,531.73
2018-09-19T02:41:19.366Z,523.40
2018-09-19T02:43:46.794Z,518.83
2018-09-19T02:46:14.236Z,536.67
2018-09-19T02:48:41.633Z,530.37
2018-09-19T02:51:08.914Z,523.17
2018-09-19T02:53:36.023Z,519.73
2018-09-19T02:56:03.195Z,526.87
2018-09-19T02:58:30.345Z,522.90
2018-09-19T03:00:57.497Z,528.30
2018-09-19T03:03:24.712Z,523.57
2018-09-19T03:05:51.869Z,528.83
2018-09-19T03:08:19.022Z,532.17
2018-09-19T03:10:46.178Z,520.13
2018-09-19T03:13:13.336Z,526.37
2018-09-19T03:15:40.535Z,523.73
2018-09-19T03:18:07.690Z,523.03
2018-09-19T03:20:34.848Z,527.17
2018-09-19T03:23:02.020Z,519.47
2018-09-19T03:25:29.166Z,516.33
2018-09-19T03:27:56.339Z,532.30
2018-09-19T03:30:23.546Z,525.00
2018-09-19T03:32:50.709Z,523.37
2018-09-19T03:35:17.963Z,520.20
2018-09-19T03:37:45.118Z,521.70
2018-09-19T03:40:12.274Z,531.60
2018-09-19T03:42:39.406Z,521.30
2018-09-19T03:45:06.633Z,525.33
2018-09-19T03:47:33.765Z,527.93
2018-09-19T03:50:00.918Z,522.37
2018-09-19T03:52:28.058Z,527.33
2018-09-19T03:54:55.195Z,529.03
2018-09-19T03:57:22.323Z,521.33
2018-09-19T03:59:49.459Z,523.77
2018-09-19T04:02:16.590Z,517.80
2018-09-19T04:04:43.725Z,518.00
2018-09-19T04:07:10.855Z,525.27
2018-09-19T04:09:37.990Z,518.83
2018-09-19T04:12:05.194Z,513.80
2018-09-19T04:14:32.319Z,519.07
2018-09-19T04:16:59.454Z,519.40
2018-09-19T04:19:26.611Z,516.47
2018-09-19T04:21:53.725Z,511.80
2018-09-19T04:24:20.854Z,513.87
2018-09-19T04:26:48.008Z,513.13
2018-09-19T04:29:15.466Z,517.03
2018-09-19T04:31:42.811Z,523.23
2018-09-19T04:34:09.950Z,518.73
2018-09-19T04:36:37.102Z,523.07
2018-09-19T04:39:06.708Z,528.63
2018-09-19T04:41:33.865Z,514.83
2018-09-19T04:44:01.177Z,514.70
2018-09-19T04:46:28.326Z,523.33
2018-09-19T04:48:55.461Z,517.70
2018-09-19T04:51:22.654Z,524.03
2018-09-19T04:53:49.761Z,522.47
2018-09-19T04:56:16.922Z,521.10
2018-09-19T04:58:44.089Z,524.73
2018-09-19T05:01:11.251Z,523.87
2018-09-19T05:03:38.407Z,514.83
2018-09-19T05:06:05.591Z,514.20
2018-09-19T05:08:32.751Z,517.40
2018-09-19T05:10:59.955Z,515.47
2018-09-19T05:13:27.111Z,524.50
2018-09-19T05:15:54.280Z,517.70
2018-09-19T05:18:21.432Z,517.13
2018-09-19T05:20:48.599Z,520.10
2018-09-19T05:23:15.750Z,518.87
2018-09-19T05:25:42.920Z,521.30
2018-09-19T05:28:10.098Z,513.50
2018-09-19T05:30:37.219Z,516.17
2018-09-19T05:33:04.390Z,520.03
2018-09-19T05:35:31.558Z,526.00
2018-09-19T05:37:58.708Z,527.93
2018-09-19T05:40:25.870Z,514.00
2018-09-19T05:42:53.038Z,517.23
2018-09-19T05:45:20.198Z,527.60
2018-09-19T05:47:47.350Z,513.40
2018-09-19T05:50:14.495Z,520.90
2018-09-19T05:52:41.681Z,525.73
2018-09-19T05:55:08.934Z,523.60
2018-09-19T05:57:36.085Z,517.90
2018-09-19T06:00:03.734Z,518.00
2018-09-19T06:02:30.935Z,522.10
2018-09-19T06:04:58.158Z,528.37
2018-09-19T06:07:25.410Z,529.23
2018-09-19T06:09:52.577Z,519.93
2018-09-19T06:12:19.735Z,528.07
2018-09-19T06:14:46.891Z,533.13
2018-09-19T06:17:14.218Z,529.83
2018-09-19T06:19:41.438Z,545.73
2018-09-19T06:22:08.832Z,542.77
2018-09-19T06:24:36.262Z,534.20
2018-09-19T06:27:03.454Z,540.33
2018-09-19T06:29:30.606Z,547.80
2018-09-19T06:31:57.845Z,543.57
2018-09-19T06:34:26.597Z,557.17
2018-09-19T06:36:53.847Z,570.23
2018-09-19T06:39:20.974Z,568.30
2018-09-19T06:41:48.114Z,574.63
2018-09-19T06:44:15.303Z,579.33
2018-09-19T06:46:42.460Z,591.07
2018-09-19T06:49:09.696Z,595.13
2018-09-19T06:51:36.841Z,592.53
2018-09-19T06:54:03.967Z,598.50
2018-09-19T06:56:31.126Z,661.77
2018-09-19T06:58:58.273Z,596.80
2018-09-19T07:01:25.457Z,649.33
2018-09-19T07:03:52.614Z,641.40
2018-09-19T07:06:19.919Z,679.27
2018-09-19T07:08:47.230Z,663.83
2018-09-19T07:11:14.498Z,727.83
2018-09-19T07:13:41.737Z,649.03
2018-09-19T07:16:08.873Z,714.57
2018-09-19T07:18:36.023Z,670.27
2018-09-19T07:21:03.179Z,709.00
2018-09-19T07:23:30.306Z,651.57
2018-09-19T07:25:57.551Z,673.23
2018-09-19T07:28:24.714Z,709.60
2018-09-19T07:30:51.998Z,674.00
2018-09-19T07:33:19.158Z,709.83
2018-09-19T07:35:46.310Z,724.57
2018-09-19T07:38:13.602Z,722.60
2018-09-19T07:40:40.759Z,797.17
2018-09-19T07:43:07.896Z,831.63
2018-09-19T07:45:35.043Z,747.47
2018-09-19T07:48:02.247Z,784.80
2018-09-19T07:50:29.557Z,788.53
2018-09-19T07:53:00.212Z,778.63
2018-09-19T07:55:28.240Z,773.57
2018-09-19T07:57:55.916Z,850.50
2018-09-19T08:00:23.064Z,773.50
2018-09-19T08:02:50.257Z,811.97
2018-09-19T08:05:17.487Z,841.57
2018-09-19T08:07:44.626Z,836.67
2018-09-19T08:10:11.762Z,837.50
2018-09-19T08:12:38.975Z,881.70
2018-09-19T08:15:06.137Z,855.13
2018-09-19T08:17:33.374Z,807.07
2018-09-19T08:20:00.550Z,877.27
2018-09-19T08:22:27.755Z,891.73
2018-09-19T08:24:54.910Z,897.83
2018-09-19T08:27:22.203Z,817.47
2018-09-19T08:29:49.412Z,895.20
2018-09-19T08:32:16.649Z,843.10
2018-09-19T08:34:43.830Z,832.20
2018-09-19T08:37:10.973Z,883.23
2018-09-19T08:39:38.277Z,905.87
2018-09-19T08:42:05.603Z,889.57
2018-09-19T08:44:32.796Z,895.83
2018-09-19T08:46:59.960Z,843.80
2018-09-19T08:49:27.121Z,829.97
2018-09-19T08:51:54.279Z,856.57
2018-09-19T08:54:21.444Z,833.77
2018-09-19T08:56:48.593Z,920.93
2018-09-19T08:59:15.758Z,872.67
2018-09-19T09:01:42.983Z,841.83
2018-09-19T09:04:10.158Z,908.77
2018-09-19T09:06:37.358Z,918.70
2018-09-19T09:09:05.592Z,923.20
2018-09-19T09:11:32.762Z,887.03
2018-09-19T09:13:59.937Z,906.33
2018-09-19T09:16:27.143Z,875.47
2018-09-19T09:18:54.580Z,820.57
2018-09-19T09:21:22.047Z,816.97
2018-09-19T09:23:49.477Z,820.10
2018-09-19T09:26:16.668Z,864.20
2018-09-19T09:28:43.825Z,810.13
2018-09-19T09:31:11.027Z,818.03
2018-09-19T09:33:38.151Z,785.67
2018-09-19T09:36:05.625Z,863.93
2018-09-19T09:38:32.965Z,794.87
2018-09-19T09:41:00.098Z,769.20
2018-09-19T09:43:27.288Z,772.20
2018-09-19T09:45:54.447Z,833.27
2018-09-19T09:48:21.673Z,802.57
2018-09-19T09:50:48.856Z,769.93
2018-09-19T09:53:16.066Z,767.80
2018-09-19T09:55:43.170Z,777.63
2018-09-19T09:58:10.368Z,761.63
2018-09-19T10:00:39.487Z,837.40
2018-09-19T10:03:07.160Z,745.30
2018-09-19T10:05:34.297Z,795.47
2018-09-19T10:08:01.546Z,804.47
2018-09-19T10:10:28.793Z,783.20
2018-09-19T10:12:55.947Z,774.63
2018-09-19T10:15:23.099Z,768.60
2018-09-19T10:17:50.266Z,836.83
2018-09-19T10:20:17.431Z,758.83
2018-09-19T10:22:44.667Z,778.00
2018-09-19T10:25:11.892Z,779.43
2018-09-19T10:27:39.021Z,768.20
2018-09-19T10:30:06.179Z,731.50
2018-09-19T10:32:33.380Z,769.93
2018-09-19T10:35:00.512Z,841.87
2018-09-19T10:37:27.682Z,858.30
2018-09-19T10:39:54.817Z,777.00
2018-09-19T10:42:21.971Z,804.40
2018-09-19T10:44:49.115Z,774.70
2018-09-19T10:47:16.371Z,748.17
2018-09-19T10:49:43.520Z,751.33
2018-09-19T10:52:10.732Z,733.17
2018-09-19T10:54:37.878Z,748.13
2018-09-19T10:57:05.303Z,722.40
2018-09-19T10:59:32.423Z,725.30
2018-09-19T11:01:59.693Z,706.60
2018-09-19T11:04:26.843Z,697.13
2018-09-19T11:06:54.019Z,744.70
2018-09-19T11:09:21.162Z,740.33
2018-09-19T11:11:48.302Z,733.40
2018-09-19T11:14:15.444Z,720.77
2018-09-19T11:16:42.732Z,833.13
2018-09-19T11:19:09.884Z,816.90
2018-09-19T11:21:37.030Z,740.93
2018-09-19T11:24:04.206Z,763.00
2018-09-19T11:26:31.391Z,746.50
2018-09-19T11:28:58.515Z,720.03
2018-09-19T11:31:25.677Z,773.07
2018-09-19T11:33:52.823Z,704.17
2018-09-19T11:36:20.066Z,707.10
2018-09-19T11:38:47.252Z,721.43
2018-09-19T11:41:14.414Z,778.77
2018-09-19T11:43:41.571Z,806.73
2018-09-19T11:46:08.775Z,836.57
2018-09-19T11:48:35.939Z,778.60
2018-09-19T11:51:03.103Z,723.80
2018-09-19T11:53:30.270Z,860.40
